createdAt,value
2023-01-26T00:00:01.144Z,35.1
2023-01-26T00:01:07.706Z,35.1
2023-01-26T00:02:01.507Z,35.4
2023-01-26T00:03:01.195Z,35.2
2023-01-26T00:04:01.574Z,35.4
2023-01-26T00:05:01.515Z,35.8
2023-01-26T00:06:03.601Z,35.8
2023-01-26T00:07:01.206Z,36.0
2023-01-26T00:08:01.469Z,35.8
2023-01-26T00:09:01.185Z,35.4
2023-01-26T00:10:01.468Z,35.2
2023-01-26T00:11:03.982Z,35.1
2023-01-26T00:12:01.153Z,35.2
2023-01-26T00:13:01.516Z,35.1
2023-01-26T00:14:01.180Z,35.1
2023-01-26T00:15:01.155Z,35.2
2023-01-26T00:16:02.045Z,35.1
2023-01-26T00:17:01.538Z,35.2
2023-01-26T00:18:02.213Z,35.6
2023-01-26T00:19:01.540Z,35.6
2023-01-26T00:20:01.156Z,35.2
2023-01-26T00:21:02.116Z,35.6
2023-01-26T00:22:01.127Z,35.6
2023-01-26T00:23:01.548Z,35.4
2023-01-26T00:24:01.647Z,35.4
2023-01-26T00:25:01.544Z,35.2
2023-01-26T00:26:04.725Z,35.1
2023-01-26T00:27:01.130Z,35.1
2023-01-26T00:28:01.469Z,35.2
2023-01-26T00:29:01.145Z,35.2
2023-01-26T00:30:01.629Z,35.2
2023-01-26T00:31:03.448Z,35.1
2023-01-26T00:32:01.740Z,34.9
2023-01-26T00:33:01.135Z,34.9
2023-01-26T00:34:01.568Z,34.9
2023-01-26T00:35:01.643Z,34.9
2023-01-26T00:36:01.684Z,34.9
2023-01-26T00:37:01.852Z,34.7
2023-01-26T00:38:01.527Z,34.7
2023-01-26T00:39:01.141Z,34.9
2023-01-26T00:40:01.643Z,34.9
2023-01-26T00:41:01.530Z,34.7
2023-01-26T00:42:01.587Z,34.9
2023-01-26T00:43:01.520Z,35.1
2023-01-26T00:44:01.884Z,35.1
2023-01-26T00:45:01.190Z,35.1
2023-01-26T00:46:01.165Z,35.2
2023-01-26T00:47:01.510Z,34.9
2023-01-26T00:48:01.327Z,34.7
2023-01-26T00:49:01.526Z,34.9
2023-01-26T00:50:01.540Z,34.7
2023-01-26T00:51:01.534Z,34.9
2023-01-26T00:52:01.593Z,35.1
2023-01-26T00:53:01.567Z,35.2
2023-01-26T00:54:01.396Z,34.9
2023-01-26T00:55:01.581Z,34.7
2023-01-26T00:56:01.124Z,34.7
2023-01-26T00:57:01.651Z,34.7
2023-01-26T00:58:02.786Z,34.5
2023-01-26T00:59:01.532Z,34.5
2023-01-26T01:00:01.163Z,34.7
2023-01-26T01:01:01.539Z,34.9
2023-01-26T01:02:01.884Z,35.2
2023-01-26T01:03:02.119Z,35.1
2023-01-26T01:04:01.526Z,34.9
2023-01-26T01:05:01.309Z,34.5
2023-01-26T01:06:01.207Z,34.7
2023-01-26T01:07:01.138Z,34.9
2023-01-26T01:08:01.928Z,34.9
2023-01-26T01:09:01.724Z,34.7
2023-01-26T01:10:01.165Z,34.9
2023-01-26T01:11:03.339Z,35.1
2023-01-26T01:12:01.471Z,35.1
2023-01-26T01:13:01.180Z,35.2
2023-01-26T01:14:01.766Z,35.4
2023-01-26T01:15:01.836Z,36.0
2023-01-26T01:16:05.329Z,35.2
2023-01-26T01:17:01.535Z,34.9
2023-01-26T01:18:01.543Z,34.9
2023-01-26T01:19:01.542Z,34.9
2023-01-26T01:20:01.550Z,35.1
2023-01-26T01:21:06.088Z,34.7
2023-01-26T01:22:01.164Z,34.7
2023-01-26T01:23:01.141Z,34.7
2023-01-26T01:24:02.203Z,35.2
2023-01-26T01:25:01.489Z,35.4
2023-01-26T01:26:02.466Z,35.6
2023-01-26T01:27:01.829Z,35.1
2023-01-26T01:28:01.458Z,35.1
2023-01-26T01:29:01.531Z,35.1
2023-01-26T01:30:01.156Z,35.1
2023-01-26T01:31:04.342Z,35.2
2023-01-26T01:32:01.203Z,35.4
2023-01-26T01:33:01.474Z,35.4
2023-01-26T01:34:01.504Z,35.4
2023-01-26T01:35:01.212Z,35.6
2023-01-26T01:36:03.869Z,35.4
2023-01-26T01:37:01.128Z,35.2
2023-01-26T01:38:01.579Z,35.1
2023-01-26T01:39:01.547Z,35.4
2023-01-26T01:40:01.124Z,35.1
2023-01-26T01:41:01.499Z,34.9
2023-01-26T01:42:01.122Z,34.7
2023-01-26T01:43:01.163Z,34.5
2023-01-26T01:44:13.044Z,34.9
2023-01-26T01:45:20.534Z,34.7
2023-01-26T01:46:03.435Z,34.5
2023-01-26T01:47:04.869Z,34.7
2023-01-26T01:48:04.370Z,34.5
2023-01-26T01:49:13.357Z,34.5
2023-01-26T01:50:01.864Z,34.7
2023-01-26T01:51:07.162Z,34.5
2023-01-26T01:52:06.179Z,34.5
2023-01-26T01:53:01.237Z,34.5
2023-01-26T01:54:07.026Z,34.2
2023-01-26T01:55:04.815Z,34.3
2023-01-26T01:56:06.114Z,34.5
2023-01-26T01:57:06.920Z,34.3
2023-01-26T01:58:03.296Z,34.5
2023-01-26T01:59:03.788Z,34.5
2023-01-26T02:00:06.170Z,34.5
2023-01-26T02:01:01.143Z,34.5
2023-01-26T02:02:01.466Z,34.3
2023-01-26T02:03:06.269Z,34.3
2023-01-26T02:04:04.492Z,34.5
2023-01-26T02:05:12.821Z,34.3
2023-01-26T02:06:05.993Z,34.3
2023-01-26T02:07:01.553Z,34.3
2023-01-26T02:08:03.763Z,34.7
2023-01-26T02:09:03.744Z,35.1
2023-01-26T02:10:02.525Z,34.9
2023-01-26T02:11:04.918Z,34.7
2023-01-26T02:12:04.045Z,34.5
2023-01-26T02:13:03.693Z,34.9
2023-01-26T02:14:05.865Z,34.9
2023-01-26T02:15:02.598Z,35.2
2023-01-26T02:16:01.688Z,35.1
2023-01-26T02:17:01.242Z,34.9
2023-01-26T02:18:04.292Z,34.7
2023-01-26T02:19:01.525Z,34.5
2023-01-26T02:20:07.226Z,34.7
2023-01-26T02:21:04.908Z,34.9
2023-01-26T02:22:11.853Z,35.1
2023-01-26T02:23:09.806Z,35.1
2023-01-26T02:24:12.012Z,35.1
2023-01-26T02:25:09.390Z,35.2
2023-01-26T02:26:03.389Z,35.2
2023-01-26T02:27:01.828Z,35.8
2023-01-26T02:28:01.253Z,35.6
2023-01-26T02:29:03.935Z,35.6
2023-01-26T02:30:03.316Z,35.6
2023-01-26T02:31:01.419Z,35.4
2023-01-26T02:32:01.128Z,35.2
2023-01-26T02:33:01.523Z,35.2
2023-01-26T02:34:01.495Z,35.2
2023-01-26T02:35:01.581Z,35.2
2023-01-26T02:36:02.990Z,35.2
2023-01-26T02:37:01.534Z,35.2
2023-01-26T02:38:01.178Z,35.1
2023-01-26T02:39:20.552Z,35.2
2023-01-26T02:40:10.718Z,35.2
2023-01-26T02:41:06.578Z,35.2
2023-01-26T02:42:01.223Z,35.2
2023-01-26T02:43:01.311Z,35.2
2023-01-26T02:44:03.408Z,35.2
2023-01-26T02:45:01.353Z,35.4
2023-01-26T02:46:01.365Z,35.2
2023-01-26T02:47:09.492Z,35.1
2023-01-26T02:48:01.612Z,35.1
2023-01-26T02:49:01.551Z,35.1
2023-01-26T02:50:01.553Z,35.1
2023-01-26T02:51:01.210Z,35.1
2023-01-26T02:52:01.192Z,35.1
2023-01-26T02:53:03.760Z,35.1
2023-01-26T02:54:01.174Z,35.2
2023-01-26T02:55:01.656Z,35.2
2023-01-26T02:56:01.268Z,35.2
2023-01-26T02:57:01.264Z,35.2
2023-01-26T02:58:03.335Z,35.4
2023-01-26T02:59:01.212Z,35.6
2023-01-26T03:00:01.654Z,35.6
2023-01-26T03:01:01.282Z,35.6
2023-01-26T03:02:02.769Z,35.6
2023-01-26T03:03:06.946Z,35.4
2023-01-26T03:04:01.287Z,35.4
2023-01-26T03:05:01.172Z,35.6
2023-01-26T03:06:01.301Z,35.6
2023-01-26T03:07:01.596Z,35.4
2023-01-26T03:08:01.648Z,35.6
2023-01-26T03:09:01.617Z,35.6
2023-01-26T03:10:01.466Z,35.6
2023-01-26T03:11:01.667Z,35.6
2023-01-26T03:12:02.473Z,35.4
2023-01-26T03:13:01.745Z,35.4
2023-01-26T03:14:01.167Z,35.2
2023-01-26T03:15:01.759Z,35.2
2023-01-26T03:16:01.561Z,35.2
2023-01-26T03:17:01.803Z,35.4
2023-01-26T03:18:02.896Z,35.4
2023-01-26T03:19:01.248Z,35.4
2023-01-26T03:20:01.832Z,35.1
2023-01-26T03:21:03.348Z,35.2
2023-01-26T03:22:01.539Z,35.4
2023-01-26T03:23:01.603Z,35.4
2023-01-26T03:24:01.585Z,35.4
2023-01-26T03:25:01.190Z,35.4
2023-01-26T03:26:01.550Z,35.4
2023-01-26T03:27:01.576Z,35.4
2023-01-26T03:28:01.450Z,35.4
2023-01-26T03:29:01.150Z,35.4
2023-01-26T03:30:01.366Z,35.4
2023-01-26T03:31:06.356Z,35.4
2023-01-26T03:32:01.238Z,35.4
2023-01-26T03:33:01.229Z,35.4
2023-01-26T03:34:01.212Z,35.4
2023-01-26T03:35:01.666Z,35.4
2023-01-26T03:36:01.200Z,35.4
2023-01-26T03:37:01.788Z,35.6
2023-01-26T03:38:01.207Z,35.4
2023-01-26T03:39:01.728Z,35.6
2023-01-26T03:40:01.247Z,35.6
2023-01-26T03:41:01.214Z,35.6
2023-01-26T03:42:03.448Z,35.6
2023-01-26T03:43:07.383Z,35.6
2023-01-26T03:44:01.154Z,35.4
2023-01-26T03:45:01.631Z,35.6
2023-01-26T03:46:02.261Z,35.8
2023-01-26T03:47:01.183Z,35.8
2023-01-26T03:48:07.271Z,35.8
2023-01-26T03:49:01.202Z,35.8
2023-01-26T03:50:01.597Z,35.8
2023-01-26T03:51:01.500Z,35.8
2023-01-26T03:52:01.178Z,35.8
2023-01-26T03:53:01.278Z,35.8
2023-01-26T03:54:01.519Z,35.8
2023-01-26T03:55:01.522Z,35.8
2023-01-26T03:56:01.173Z,35.8
2023-01-26T03:57:01.587Z,35.8
2023-01-26T03:58:01.634Z,36.0
2023-01-26T03:59:03.940Z,35.8
2023-01-26T04:00:01.548Z,35.8
2023-01-26T04:01:01.496Z,36.0
2023-01-26T04:02:01.255Z,36.0
2023-01-26T04:03:01.561Z,36.0
2023-01-26T04:04:01.778Z,36.0
2023-01-26T04:05:01.694Z,36.0
2023-01-26T04:06:16.029Z,35.8
2023-01-26T04:07:01.251Z,35.8
2023-01-26T04:08:02.819Z,36.0
2023-01-26T04:09:01.230Z,36.0
2023-01-26T04:11:01.547Z,36.0
2023-01-26T04:12:02.906Z,36.0
2023-01-26T04:13:01.562Z,36.0
2023-01-26T04:15:01.228Z,36.1
2023-01-26T04:16:01.259Z,36.0
2023-01-26T04:18:04.819Z,36.0
2023-01-26T04:19:01.495Z,36.1
2023-01-26T04:20:01.391Z,36.1
2023-01-26T04:22:01.202Z,36.1
2023-01-26T04:24:04.535Z,36.1
2023-01-26T04:25:01.397Z,36.0
2023-01-26T04:27:01.581Z,36.1
2023-01-26T04:28:01.189Z,36.1
2023-01-26T04:29:02.250Z,36.1
2023-01-26T04:30:01.918Z,36.1
2023-01-26T04:31:01.148Z,36.1
2023-01-26T04:32:01.198Z,36.1
2023-01-26T04:33:01.140Z,36.1
2023-01-26T04:34:03.714Z,36.1
2023-01-26T04:35:01.644Z,36.3
2023-01-26T04:36:04.285Z,36.3
2023-01-26T04:37:01.626Z,36.3
2023-01-26T04:38:01.191Z,36.3
2023-01-26T04:39:01.592Z,36.3
2023-01-26T04:40:01.906Z,36.1
2023-01-26T04:41:01.915Z,36.1
2023-01-26T04:42:01.643Z,36.1
2023-01-26T04:43:01.565Z,36.1
2023-01-26T04:44:01.632Z,36.1
2023-01-26T04:45:01.635Z,36.1
2023-01-26T04:46:04.103Z,36.3
2023-01-26T04:47:01.170Z,36.3
2023-01-26T04:48:01.249Z,36.3
2023-01-26T04:49:01.170Z,36.1
2023-01-26T04:50:01.228Z,36.3
2023-01-26T04:51:04.224Z,36.1
2023-01-26T04:52:01.180Z,36.3
2023-01-26T04:53:01.536Z,36.3
2023-01-26T04:54:01.166Z,36.3
2023-01-26T04:55:01.625Z,36.3
2023-01-26T04:56:01.800Z,36.5
2023-01-26T04:57:01.449Z,36.5
2023-01-26T04:58:02.525Z,36.3
2023-01-26T04:59:03.509Z,36.3
2023-01-26T05:00:01.560Z,36.5
2023-01-26T05:01:01.666Z,36.5
2023-01-26T05:02:01.180Z,36.5
2023-01-26T05:03:01.569Z,36.5
2023-01-26T05:04:03.333Z,36.5
2023-01-26T05:05:01.139Z,36.5
2023-01-26T05:06:01.214Z,36.7
2023-01-26T05:07:01.178Z,36.9
2023-01-26T05:08:01.316Z,36.9
2023-01-26T05:09:01.548Z,36.9
2023-01-26T05:10:01.691Z,36.9
2023-01-26T05:11:01.529Z,36.9
2023-01-26T05:12:01.153Z,37.0
2023-01-26T05:13:01.624Z,37.0
2023-01-26T05:14:01.638Z,36.9
2023-01-26T05:15:01.575Z,36.9
2023-01-26T05:16:01.621Z,37.0
2023-01-26T05:17:01.937Z,37.0
2023-01-26T05:18:02.296Z,37.0
2023-01-26T05:19:01.496Z,37.0
2023-01-26T05:20:01.276Z,37.0
2023-01-26T05:21:01.164Z,37.0
2023-01-26T05:22:01.268Z,37.0
2023-01-26T05:23:01.625Z,37.2
2023-01-26T05:24:01.660Z,37.2
2023-01-26T05:25:01.627Z,37.2
2023-01-26T05:26:01.536Z,37.2
2023-01-26T05:27:01.581Z,37.2
2023-01-26T05:28:01.222Z,37.2
2023-01-26T05:29:01.712Z,37.4
2023-01-26T05:30:01.831Z,37.4
2023-01-26T05:31:01.709Z,37.4
2023-01-26T05:32:01.943Z,37.4
2023-01-26T05:33:02.530Z,37.4
2023-01-26T05:34:01.561Z,37.6
2023-01-26T05:35:01.215Z,37.6
2023-01-26T05:36:05.331Z,37.6
2023-01-26T05:37:01.543Z,37.4
2023-01-26T05:38:01.572Z,37.4
2023-01-26T05:39:01.207Z,37.2
2023-01-26T05:40:01.348Z,37.2
2023-01-26T05:41:01.597Z,37.0
2023-01-26T05:42:01.571Z,37.2
2023-01-26T05:43:01.604Z,37.2
2023-01-26T05:44:01.183Z,37.0
2023-01-26T05:45:01.537Z,37.0
2023-01-26T05:46:01.768Z,37.2
2023-01-26T05:47:01.546Z,37.2
2023-01-26T05:48:01.880Z,37.4
2023-01-26T05:49:01.469Z,37.4
2023-01-26T05:50:01.525Z,37.4
2023-01-26T05:51:03.877Z,37.6
2023-01-26T05:52:01.815Z,37.6
2023-01-26T05:53:01.536Z,37.6
2023-01-26T05:54:01.162Z,37.6
2023-01-26T05:55:01.279Z,37.4
2023-01-26T05:56:01.523Z,37.4
2023-01-26T05:57:01.616Z,37.2
2023-01-26T05:58:01.655Z,37.2
2023-01-26T05:59:01.136Z,37.2
2023-01-26T06:00:01.411Z,37.2
2023-01-26T06:01:03.503Z,37.2
2023-01-26T06:02:01.577Z,37.2
2023-01-26T06:03:01.478Z,37.4
2023-01-26T06:04:01.596Z,37.4
2023-01-26T06:05:01.557Z,37.4
2023-01-26T06:06:01.169Z,37.4
2023-01-26T06:07:01.191Z,37.6
2023-01-26T06:08:01.180Z,37.8
2023-01-26T06:09:01.540Z,37.9
2023-01-26T06:10:01.613Z,37.8
2023-01-26T06:11:01.572Z,37.8
2023-01-26T06:12:01.247Z,37.8
2023-01-26T06:13:01.193Z,37.8
2023-01-26T06:14:01.535Z,37.8
2023-01-26T06:15:02.271Z,37.6
2023-01-26T06:16:01.255Z,37.8
2023-01-26T06:17:01.301Z,37.8
2023-01-26T06:18:01.234Z,37.8
2023-01-26T06:19:01.546Z,37.9
2023-01-26T06:20:01.174Z,38.1
2023-01-26T06:21:01.194Z,38.3
2023-01-26T06:22:01.800Z,38.3
2023-01-26T06:23:01.632Z,38.1
2023-01-26T06:24:01.324Z,38.1
2023-01-26T06:25:01.554Z,38.1
2023-01-26T06:26:01.869Z,38.1
2023-01-26T06:27:01.726Z,38.1
2023-01-26T06:28:01.620Z,38.1
2023-01-26T06:29:01.284Z,38.1
2023-01-26T06:30:01.370Z,38.1
2023-01-26T06:31:02.306Z,38.1
2023-01-26T06:32:01.337Z,38.1
2023-01-26T06:33:01.166Z,38.1
2023-01-26T06:34:01.544Z,37.9
2023-01-26T06:35:01.173Z,38.1
2023-01-26T06:36:01.982Z,38.3
2023-01-26T06:37:01.589Z,38.7
2023-01-26T06:38:01.556Z,38.8
2023-01-26T06:39:01.567Z,39.2
2023-01-26T06:40:01.664Z,39.6
2023-01-26T06:41:03.169Z,39.9
2023-01-26T06:42:01.645Z,40.1
2023-01-26T06:43:01.650Z,41.2
2023-01-26T06:44:01.154Z,41.9
2023-01-26T06:45:01.178Z,43.5
2023-01-26T06:46:02.039Z,44.6
2023-01-26T06:47:01.480Z,45.3
2023-01-26T06:48:01.382Z,45.7
2023-01-26T06:49:01.514Z,46.0
2023-01-26T06:50:01.552Z,46.0
2023-01-26T06:51:14.310Z,46.8
2023-01-26T06:52:12.193Z,47.1
2023-01-26T06:53:13.696Z,47.8
2023-01-26T06:54:01.210Z,48.4
2023-01-26T06:55:02.916Z,48.6
2023-01-26T06:56:01.588Z,48.9
2023-01-26T06:57:01.392Z,49.1
2023-01-26T06:58:01.512Z,49.5
2023-01-26T06:59:01.178Z,49.5
2023-01-26T07:00:02.095Z,49.6
2023-01-26T07:01:01.687Z,49.8
2023-01-26T07:02:01.172Z,49.8
2023-01-26T07:03:01.507Z,49.8
2023-01-26T07:04:01.955Z,49.8
2023-01-26T07:05:01.209Z,50.0
2023-01-26T07:06:01.621Z,50.2
2023-01-26T07:07:01.241Z,50.0
2023-01-26T07:08:01.569Z,50.2
2023-01-26T07:09:01.447Z,50.2
2023-01-26T07:10:01.228Z,50.2
2023-01-26T07:11:01.601Z,50.2
2023-01-26T07:12:01.598Z,50.7
2023-01-26T07:13:03.404Z,50.5
2023-01-26T07:14:01.708Z,50.7
2023-01-26T07:15:01.180Z,50.7
2023-01-26T07:16:02.505Z,50.7
2023-01-26T07:17:01.301Z,50.7
2023-01-26T07:18:01.228Z,50.9
2023-01-26T07:19:01.627Z,50.9
2023-01-26T07:20:01.611Z,50.9
2023-01-26T07:21:02.222Z,50.9
2023-01-26T07:22:02.004Z,50.7
2023-01-26T07:23:01.692Z,50.9
2023-01-26T07:24:01.225Z,51.1
2023-01-26T07:25:01.565Z,51.3
2023-01-26T07:26:01.958Z,51.3
2023-01-26T07:27:01.479Z,51.3
2023-01-26T07:28:01.161Z,51.3
2023-01-26T07:29:01.258Z,51.4
2023-01-26T07:30:01.262Z,51.4
2023-01-26T07:31:03.921Z,51.3
2023-01-26T07:32:01.288Z,51.4
2023-01-26T07:33:01.392Z,51.6
2023-01-26T07:34:01.136Z,51.6
2023-01-26T07:35:02.220Z,51.6
2023-01-26T07:36:01.996Z,52.0
2023-01-26T07:37:01.238Z,52.0
2023-01-26T07:38:03.822Z,52.0
2023-01-26T07:39:01.271Z,52.0
2023-01-26T07:40:01.179Z,52.2
2023-01-26T07:41:06.905Z,52.0
2023-01-26T07:42:01.391Z,52.2
2023-01-26T07:43:01.234Z,52.3
2023-01-26T07:44:01.337Z,52.2
2023-01-26T07:45:01.621Z,52.2
2023-01-26T07:46:01.724Z,52.3
2023-01-26T07:47:01.244Z,52.2
2023-01-26T07:48:01.554Z,52.3
2023-01-26T07:49:01.718Z,52.5
2023-01-26T07:50:01.190Z,52.3
2023-01-26T07:51:03.790Z,52.2
2023-01-26T07:52:03.161Z,52.5
2023-01-26T07:53:01.486Z,52.5
2023-01-26T07:54:01.238Z,52.5
2023-01-26T07:55:01.692Z,52.5
2023-01-26T07:56:06.857Z,52.5
2023-01-26T07:57:01.132Z,52.3
2023-01-26T07:58:01.182Z,52.3
2023-01-26T07:59:03.762Z,52.5
2023-01-26T08:00:01.373Z,52.7
2023-01-26T08:01:07.347Z,52.7
2023-01-26T08:02:01.738Z,52.7
2023-01-26T08:03:01.413Z,52.9
2023-01-26T08:04:01.284Z,52.9
2023-01-26T08:05:01.668Z,52.9
2023-01-26T08:06:01.851Z,53.1
2023-01-26T08:07:01.538Z,53.1
2023-01-26T08:08:01.649Z,53.1
2023-01-26T08:09:01.129Z,52.9
2023-01-26T08:10:01.412Z,52.9
2023-01-26T08:11:02.117Z,52.7
2023-01-26T08:12:01.202Z,52.7
2023-01-26T08:13:01.797Z,51.4
2023-01-26T08:14:01.852Z,50.9
2023-01-26T08:15:01.423Z,49.8
2023-01-26T08:16:04.452Z,49.1
2023-01-26T08:17:01.157Z,48.6
2023-01-26T08:18:01.185Z,48.2
2023-01-26T08:19:01.567Z,48.0
2023-01-26T08:20:01.775Z,47.3
2023-01-26T08:21:01.181Z,46.9
2023-01-26T08:22:01.295Z,46.6
2023-01-26T08:23:01.139Z,46.0
2023-01-26T08:24:01.804Z,45.9
2023-01-26T08:25:01.570Z,45.5
2023-01-26T08:26:02.827Z,45.3
2023-01-26T08:27:01.871Z,45.0
2023-01-26T08:28:01.154Z,44.8
2023-01-26T08:29:01.143Z,44.8
2023-01-26T08:30:01.621Z,44.4
2023-01-26T08:31:03.518Z,44.1
2023-01-26T08:32:01.217Z,43.7
2023-01-26T08:33:01.231Z,43.5
2023-01-26T08:34:01.229Z,43.5
2023-01-26T08:35:01.199Z,43.3
2023-01-26T08:36:01.754Z,43.3
2023-01-26T08:37:02.858Z,43.3
2023-01-26T08:38:01.857Z,43.2
2023-01-26T08:39:01.183Z,43.2
2023-01-26T08:40:01.533Z,43.2
2023-01-26T08:41:02.470Z,43.0
2023-01-26T08:42:01.146Z,42.8
2023-01-26T08:43:02.752Z,42.8
2023-01-26T08:44:01.693Z,42.6
2023-01-26T08:45:01.696Z,42.4
2023-01-26T08:46:01.715Z,42.4
2023-01-26T08:47:02.007Z,42.4
2023-01-26T08:48:01.758Z,42.3
2023-01-26T08:49:01.537Z,42.1
2023-01-26T08:50:01.534Z,41.9
2023-01-26T08:51:03.138Z,41.7
2023-01-26T08:52:01.170Z,41.7
2023-01-26T08:53:01.266Z,41.7
2023-01-26T08:54:04.266Z,41.7
2023-01-26T08:55:02.238Z,41.5
2023-01-26T08:56:02.844Z,41.5
2023-01-26T08:57:01.604Z,41.5
2023-01-26T08:58:01.683Z,41.4
2023-01-26T08:59:01.895Z,41.5
2023-01-26T09:00:01.942Z,41.7
2023-01-26T09:01:04.836Z,41.7
2023-01-26T09:02:01.253Z,41.7
2023-01-26T09:03:03.404Z,41.7
2023-01-26T09:04:01.159Z,41.7
2023-01-26T09:05:01.244Z,41.5
2023-01-26T09:06:02.778Z,41.5
2023-01-26T09:07:01.576Z,41.5
2023-01-26T09:08:01.247Z,41.4
2023-01-26T09:09:01.165Z,41.4
2023-01-26T09:10:01.480Z,41.4
2023-01-26T09:11:04.341Z,41.4
2023-01-26T09:12:01.426Z,41.4
2023-01-26T09:13:01.372Z,41.4
2023-01-26T09:14:01.535Z,41.4
2023-01-26T09:15:01.575Z,41.2
2023-01-26T09:16:03.471Z,41.2
2023-01-26T09:17:01.813Z,41.4
2023-01-26T09:18:01.586Z,41.4
2023-01-26T09:19:01.705Z,41.5
2023-01-26T09:20:01.943Z,41.5
2023-01-26T09:21:02.521Z,41.5
2023-01-26T09:22:01.544Z,41.7
2023-01-26T09:23:01.694Z,41.5
2023-01-26T09:24:01.623Z,41.7
2023-01-26T09:25:01.537Z,41.9
2023-01-26T09:26:01.889Z,41.7
2023-01-26T09:27:01.165Z,41.5
2023-01-26T09:28:02.502Z,41.5
2023-01-26T09:29:01.547Z,41.7
2023-01-26T09:30:02.336Z,41.5
2023-01-26T09:31:04.204Z,41.5
2023-01-26T09:32:01.811Z,41.4
2023-01-26T09:33:03.831Z,41.4
2023-01-26T09:34:01.244Z,41.5
2023-01-26T09:35:01.620Z,41.7
2023-01-26T09:36:03.805Z,41.7
2023-01-26T09:37:01.237Z,41.7
2023-01-26T09:38:01.229Z,41.9
2023-01-26T09:39:01.607Z,41.7
2023-01-26T09:40:01.166Z,41.9
2023-01-26T09:41:07.099Z,41.9
2023-01-26T09:42:20.314Z,41.9
2023-01-26T09:43:16.010Z,42.1
2023-01-26T09:44:07.359Z,41.9
2023-01-26T09:45:17.823Z,42.1
2023-01-26T09:46:11.758Z,41.9
2023-01-26T09:47:13.375Z,42.1
2023-01-26T09:48:16.511Z,41.9
2023-01-26T09:49:09.349Z,42.1
2023-01-26T09:50:08.756Z,42.1
2023-01-26T09:51:06.621Z,42.1
2023-01-26T09:52:09.627Z,42.1
2023-01-26T09:53:06.132Z,42.1
2023-01-26T09:54:05.245Z,42.1
2023-01-26T09:55:05.971Z,42.1
2023-01-26T09:56:01.217Z,42.1
2023-01-26T09:57:09.913Z,42.3
2023-01-26T09:58:05.073Z,42.1
2023-01-26T09:59:10.721Z,42.1
2023-01-26T10:00:06.841Z,42.3
2023-01-26T10:01:03.163Z,42.3
2023-01-26T10:02:14.521Z,42.3
2023-01-26T10:03:14.062Z,42.3
2023-01-26T10:04:08.681Z,42.3
2023-01-26T10:05:12.757Z,42.4
2023-01-26T10:06:10.887Z,42.4
2023-01-26T10:07:07.297Z,42.4
2023-01-26T10:08:02.163Z,42.4
2023-01-26T10:09:07.665Z,42.3
2023-01-26T10:10:02.045Z,42.4
2023-01-26T10:11:10.036Z,42.4
2023-01-26T10:12:04.243Z,42.3
2023-01-26T10:13:02.065Z,42.4
2023-01-26T10:14:10.112Z,42.3
2023-01-26T10:15:05.637Z,42.3
2023-01-26T10:16:08.531Z,42.1
2023-01-26T10:17:04.456Z,42.1
2023-01-26T10:18:06.951Z,41.7
2023-01-26T10:19:06.004Z,41.7
2023-01-26T10:20:05.641Z,41.7
2023-01-26T10:21:05.599Z,41.7
2023-01-26T10:22:07.290Z,41.7
2023-01-26T10:23:06.662Z,41.5
2023-01-26T10:24:01.942Z,41.5
2023-01-26T10:25:01.517Z,41.7
2023-01-26T10:26:11.940Z,41.5
2023-01-26T10:27:02.188Z,41.5
2023-01-26T10:28:10.694Z,41.5
2023-01-26T10:29:02.228Z,41.5
2023-01-26T10:30:01.236Z,41.5
2023-01-26T10:31:03.587Z,41.5
2023-01-26T10:32:01.782Z,41.5
2023-01-26T10:33:01.649Z,41.5
2023-01-26T10:34:09.565Z,41.7
2023-01-26T10:35:01.610Z,41.5
2023-01-26T10:36:03.012Z,41.5
2023-01-26T10:37:18.372Z,41.5
2023-01-26T10:38:01.536Z,41.7
2023-01-26T10:39:05.155Z,41.7
2023-01-26T10:40:03.518Z,41.7
2023-01-26T10:41:04.001Z,41.7
2023-01-26T10:42:02.987Z,41.7
2023-01-26T10:43:01.730Z,41.7
2023-01-26T10:44:12.804Z,41.5
2023-01-26T10:45:03.952Z,41.5
2023-01-26T10:46:03.770Z,41.5
2023-01-26T10:47:05.672Z,41.5
2023-01-26T10:48:13.605Z,41.5
2023-01-26T10:49:12.989Z,41.5
2023-01-26T10:50:19.309Z,41.5
2023-01-26T10:51:15.099Z,41.7
2023-01-26T10:52:07.987Z,41.7
2023-01-26T10:53:04.076Z,41.7
2023-01-26T10:54:13.555Z,41.5
2023-01-26T10:55:11.840Z,41.4
2023-01-26T10:56:04.190Z,41.4
2023-01-26T10:57:04.687Z,42.1
2023-01-26T10:58:01.820Z,42.1
2023-01-26T10:59:01.476Z,41.9
2023-01-26T11:00:06.995Z,41.9
2023-01-26T11:01:01.624Z,41.9
2023-01-26T11:02:12.549Z,42.3
2023-01-26T11:03:13.945Z,42.1
2023-01-26T11:04:05.465Z,42.1
2023-01-26T11:05:13.442Z,41.9
2023-01-26T11:06:05.867Z,42.1
2023-01-26T11:07:20.563Z,42.1
2023-01-26T11:08:01.268Z,41.9
2023-01-26T11:09:10.519Z,41.9
2023-01-26T11:10:20.559Z,41.9
2023-01-26T11:11:02.983Z,41.9
2023-01-26T11:12:03.647Z,41.9
2023-01-26T11:13:13.456Z,41.9
2023-01-26T11:14:11.632Z,41.9
2023-01-26T11:15:04.558Z,41.9
2023-01-26T11:16:05.605Z,41.9
2023-01-26T11:17:11.600Z,41.7
2023-01-26T11:18:06.553Z,41.9
2023-01-26T11:19:10.416Z,41.9
2023-01-26T11:20:16.163Z,42.1
2023-01-26T11:21:08.592Z,41.9
2023-01-26T11:22:06.704Z,41.9
2023-01-26T11:23:09.515Z,41.9
2023-01-26T11:24:10.351Z,41.9
2023-01-26T11:25:14.053Z,41.9
2023-01-26T11:26:16.489Z,41.9
2023-01-26T11:27:20.561Z,41.7
2023-01-26T11:28:14.332Z,41.7
2023-01-26T11:29:19.938Z,41.7
2023-01-26T11:30:20.588Z,41.7
2023-01-26T11:31:17.353Z,41.9
2023-01-26T11:32:11.541Z,42.1
2023-01-26T11:33:12.558Z,42.3
2023-01-26T11:34:18.210Z,42.1
2023-01-26T11:35:12.644Z,41.9
2023-01-26T11:36:11.905Z,41.7
2023-01-26T11:37:20.579Z,41.7
2023-01-26T11:38:18.757Z,41.5
2023-01-26T11:39:13.745Z,41.4
2023-01-26T11:40:13.810Z,41.4
2023-01-26T11:41:11.417Z,41.4
2023-01-26T11:42:19.146Z,41.4
2023-01-26T11:43:14.682Z,41.4
2023-01-26T11:44:18.055Z,41.4
2023-01-26T11:45:15.786Z,41.4
2023-01-26T11:46:15.409Z,41.2
2023-01-26T11:47:12.951Z,41.4
2023-01-26T11:48:13.049Z,41.4
2023-01-26T11:49:16.247Z,41.4
2023-01-26T11:50:16.255Z,41.4
2023-01-26T11:51:14.201Z,41.4
2023-01-26T11:52:10.851Z,41.4
2023-01-26T11:53:14.773Z,41.4
2023-01-26T11:54:18.274Z,41.4
2023-01-26T11:55:17.774Z,41.2
2023-01-26T11:56:12.267Z,41.2
2023-01-26T11:57:10.412Z,41.0
2023-01-26T11:58:18.805Z,41.0
2023-01-26T11:59:08.937Z,41.0
2023-01-26T12:00:24.179Z,40.8
2023-01-26T12:01:05.213Z,40.8
2023-01-26T12:02:13.755Z,40.8
2023-01-26T12:03:05.109Z,40.8
2023-01-26T12:04:01.619Z,41.0
2023-01-26T12:05:14.719Z,41.0
2023-01-26T12:06:05.405Z,41.0
2023-01-26T12:07:10.586Z,41.0
2023-01-26T12:08:06.379Z,41.0
2023-01-26T12:09:04.704Z,41.0
2023-01-26T12:10:04.579Z,41.0
2023-01-26T12:11:07.583Z,41.0
2023-01-26T12:12:09.353Z,41.0
2023-01-26T12:13:09.634Z,41.0
2023-01-26T12:14:07.337Z,41.0
2023-01-26T12:15:08.582Z,41.0
2023-01-26T12:16:10.846Z,41.0
2023-01-26T12:17:18.871Z,40.8
2023-01-26T12:18:11.427Z,41.0
2023-01-26T12:19:11.675Z,41.0
2023-01-26T12:20:14.226Z,41.0
2023-01-26T12:21:07.378Z,41.0
2023-01-26T12:22:08.162Z,41.0
2023-01-26T12:23:11.169Z,41.2
2023-01-26T12:24:04.619Z,41.2
2023-01-26T12:25:28.729Z,41.0
2023-01-26T12:26:06.999Z,41.2
2023-01-26T12:27:04.729Z,41.0
2023-01-26T12:28:11.174Z,41.0
2023-01-26T12:29:09.391Z,41.0
2023-01-26T12:30:11.838Z,41.0
2023-01-26T12:31:08.074Z,41.0
2023-01-26T12:32:09.630Z,41.2
2023-01-26T12:33:01.790Z,41.0
2023-01-26T12:34:01.326Z,41.2
2023-01-26T12:35:01.585Z,41.2
2023-01-26T12:36:20.321Z,41.2
2023-01-26T12:37:20.580Z,41.2
2023-01-26T12:38:17.681Z,41.4
2023-01-26T12:39:10.642Z,41.4
2023-01-26T12:40:12.083Z,41.4
2023-01-26T12:41:09.891Z,41.4
2023-01-26T12:42:15.300Z,41.5
2023-01-26T12:43:13.934Z,41.5
2023-01-26T12:44:13.881Z,41.5
2023-01-26T12:45:06.016Z,41.7
2023-01-26T12:46:04.747Z,41.7
2023-01-26T12:47:08.442Z,41.9
2023-01-26T12:48:10.937Z,42.1
2023-01-26T12:49:08.648Z,42.3
2023-01-26T12:50:10.234Z,42.6
2023-01-26T12:51:08.138Z,42.6
2023-01-26T12:52:08.048Z,42.6
2023-01-26T12:53:08.757Z,42.6
2023-01-26T12:54:07.813Z,43.0
2023-01-26T12:55:11.905Z,43.2
2023-01-26T12:56:10.587Z,43.2
2023-01-26T12:57:06.452Z,43.3
2023-01-26T12:58:04.478Z,43.3
2023-01-26T12:59:08.772Z,43.3
2023-01-26T13:00:06.819Z,43.7
2023-01-26T13:01:05.189Z,43.7
2023-01-26T13:02:16.825Z,43.9
2023-01-26T13:03:05.960Z,43.9
2023-01-26T13:04:07.482Z,44.1
2023-01-26T13:05:03.269Z,44.1
2023-01-26T13:06:12.292Z,44.1
2023-01-26T13:07:02.980Z,44.1
2023-01-26T13:08:20.578Z,44.1
2023-01-26T13:09:12.221Z,44.1
2023-01-26T13:10:20.541Z,44.2
2023-01-26T13:11:02.838Z,44.4
2023-01-26T13:12:01.775Z,44.2
2023-01-26T13:13:20.539Z,44.2
2023-01-26T13:14:01.157Z,44.6
2023-01-26T13:15:06.520Z,44.6
2023-01-26T13:16:22.011Z,44.4
2023-01-26T13:17:20.613Z,44.4
2023-01-26T13:18:03.154Z,44.4
2023-01-26T13:19:03.054Z,44.4
2023-01-26T13:20:20.547Z,44.4
2023-01-26T13:21:01.530Z,44.4
2023-01-26T13:22:01.258Z,44.4
2023-01-26T13:23:01.532Z,44.4
2023-01-26T13:24:01.608Z,44.6